Time;durP1;ratioP1;P1;durP2;ratioP2;P2;SDS_P1;SDS_P2;PMS_P1;PMS_P2;Temp;Humidity;BMP_temperature;BMP_pressure;BME280_temperature;BME280_humidity;BME280_pressure;Samples;Min_cycle;Max_cycle;Signal;HPM_P1;HPM_P2
2021/03/01 00:00:35;;;;;;;;;;;6.60;84.20;;;;;;5107405;27;20384;-60
2021/03/01 00:03:01;;;;;;;;;;;6.60;84.20;;;;;;5109026;28;19915;-57
2021/03/01 00:05:26;;;;;;;;;;;6.60;84.20;;;;;;5109559;28;19908;-58
2021/03/01 00:07:52;;;;;;;;;;;6.60;84.30;;;;;;5099035;27;19907;-58
2021/03/01 00:10:17;;;;;;;;;;;6.50;84.30;;;;;;5096286;27;20006;-56
2021/03/01 00:12:43;;;;;;;;;;;6.50;84.30;;;;;;5101985;28;19914;-58
2021/03/01 00:15:09;;;;;;;;;;;6.60;84.40;;;;;;5103014;28;20259;-57
2021/03/01 00:17:35;;;;;;;;;;;6.50;84.20;;;;;;5093266;28;19937;-58
2021/03/01 00:20:00;;;;;;;;;;;6.50;84.20;;;;;;5109516;28;19911;-57
2021/03/01 00:22:26;;;;;;;;;;;6.60;84.20;;;;;;5111418;28;19911;-57
2021/03/01 00:24:51;;;;;;;;;;;6.50;84.20;;;;;;5110947;28;19914;-59
2021/03/01 00:27:17;;;;;;;;;;;6.50;84.20;;;;;;5111313;28;19935;-56
2021/03/01 00:29:42;;;;;;;;;;;6.50;84.10;;;;;;5091904;28;19915;-58
2021/03/01 00:32:08;;;;;;;;;;;6.50;84.20;;;;;;5108863;28;19915;-57
2021/03/01 00:34:33;;;;;;;;;;;6.50;84.20;;;;;;5108589;27;20785;-57
2021/03/01 00:36:58;;;;;;;;;;;6.50;84.20;;;;;;5110866;28;19999;-57
2021/03/01 00:39:24;;;;;;;;;;;6.50;84.20;;;;;;5109279;28;19911;-60
2021/03/01 00:41:50;;;;;;;;;;;6.40;84.20;;;;;;5090518;28;19912;-56
2021/03/01 00:44:15;;;;;;;;;;;6.40;84.20;;;;;;5109397;28;19907;-58
2021/03/01 00:46:40;;;;;;;;;;;6.40;84.30;;;;;;5109745;28;19908;-57
2021/03/01 00:49:06;;;;;;;;;;;6.40;84.30;;;;;;5110902;27;20469;-58
2021/03/01 00:51:32;;;;;;;;;;;6.40;84.30;;;;;;5110233;28;19907;-57
2021/03/01 00:53:57;;;;;;;;;;;6.40;84.30;;;;;;5109784;28;20018;-56
2021/03/01 00:56:22;;;;;;;;;;;6.40;84.40;;;;;;5109790;28;19912;-57
2021/03/01 00:58:48;;;;;;;;;;;6.20;84.30;;;;;;5088294;28;19915;-59
2021/03/01 01:01:13;;;;;;;;;;;6.30;84.40;;;;;;5104366;28;20238;-57
2021/03/01 01:03:39;;;;;;;;;;;6.30;84.40;;;;;;5108470;28;20366;-59
2021/03/01 01:06:04;;;;;;;;;;;6.30;84.30;;;;;;5091801;28;19934;-57
2021/03/01 01:08:30;;;;;;;;;;;6.30;84.30;;;;;;5090854;28;19919;-58
2021/03/01 01:10:55;;;;;;;;;;;6.30;84.40;;;;;;5108393;28;19908;-59
2021/03/01 01:13:21;;;;;;;;;;;6.30;84.30;;;;;;5109627;28;20023;-56
2021/03/01 01:15:46;;;;;;;;;;;6.30;84.40;;;;;;5110161;28;20399;-57
2021/03/01 01:18:12;;;;;;;;;;;6.30;84.40;;;;;;5109529;28;19912;-57
2021/03/01 01:20:37;;;;;;;;;;;6.20;84.40;;;;;;5109107;28;19919;-59
2021/03/01 01:23:03;;;;;;;;;;;6.30;84.40;;;;;;5108674;28;19916;-57
2021/03/01 01:25:28;;;;;;;;;;;6.20;84.50;;;;;;5090587;28;20515;-58
2021/03/01 01:27:53;;;;;;;;;;;6.20;84.50;;;;;;5091614;28;19958;-56
2021/03/01 01:30:20;;;;;;;;;;;6.20;84.50;;;;;;5110023;28;20421;-58
2021/03/01 01:32:45;;;;;;;;;;;6.20;84.50;;;;;;5088801;28;19912;-59
2021/03/01 01:35:11;;;;;;;;;;;6.20;84.50;;;;;;5108994;28;20405;-59
2021/03/01 01:37:37;;;;;;;;;;;6.20;84.50;;;;;;5107481;28;19927;-56
2021/03/01 01:40:06;;;;;;;;;;;6.20;84.50;;;;;;5112809;27;19908;-56
2021/03/01 01:42:31;;;;;;;;;;;6.20;84.40;;;;;;5091078;28;19912;-58
2021/03/01 01:44:57;;;;;;;;;;;6.20;84.40;;;;;;5091599;28;19912;-56
2021/03/01 01:47:22;;;;;;;;;;;6.20;84.40;;;;;;5119088;28;20307;-58
2021/03/01 01:49:48;;;;;;;;;;;6.10;84.40;;;;;;5123613;28;20432;-60
2021/03/01 01:52:13;;;;;;;;;;;6.10;84.40;;;;;;5124039;28;20329;-57
2021/03/01 01:54:39;;;;;;;;;;;6.10;84.60;;;;;;5106944;28;20289;-58
2021/03/01 01:57:05;;;;;;;;;;;6.10;84.50;;;;;;5114282;28;19911;-58
2021/03/01 01:59:30;;;;;;;;;;;6.10;84.50;;;;;;5100801;28;20458;-58
2021/03/01 02:01:56;;;;;;;;;;;6.10;84.50;;;;;;5082751;28;19919;-60
2021/03/01 02:04:21;;;;;;;;;;;6.00;84.50;;;;;;5112614;28;19914;-58
2021/03/01 02:07:00;;;;;;;;;;;6.10;84.40;;;;;;5096522;28;19926;-58
2021/03/01 02:09:45;;;;;;;;;;;6.00;84.50;;;;;;5119545;28;19912;-57
2021/03/01 02:12:10;;;;;;;;;;;6.00;84.60;;;;;;5119312;28;19912;-58
2021/03/01 02:14:54;;;;;;;;;;;6.00;84.50;;;;;;5118118;28;20402;-57
2021/03/01 02:17:20;;;;;;;;;;;6.00;84.60;;;;;;5111619;28;19990;-57
2021/03/01 02:19:45;;;;;;;;;;;6.00;84.60;;;;;;5096233;28;20002;-59
2021/03/01 02:22:11;;;;;;;;;;;5.90;84.70;;;;;;5119296;28;19911;-57
2021/03/01 02:24:43;;;;;;;;;;;5.90;84.60;;;;;;5119609;28;20477;-58
2021/03/01 02:27:10;;;;;;;;;;;5.90;84.70;;;;;;5096025;28;19918;-58
2021/03/01 02:29:35;;;;;;;;;;;5.90;84.80;;;;;;5093598;28;19974;-58
2021/03/01 02:32:01;;;;;;;;;;;5.90;84.70;;;;;;5104588;28;20393;-58
2021/03/01 02:34:28;;;;;;;;;;;5.80;84.70;;;;;;5123846;27;20131;-58
2021/03/01 02:36:54;;;;;;;;;;;5.90;84.80;;;;;;5119008;27;19973;-57
2021/03/01 02:39:21;;;;;;;;;;;5.80;84.70;;;;;;5080053;28;19915;-57
2021/03/01 02:41:46;;;;;;;;;;;5.80;84.80;;;;;;5104017;28;19915;-56
2021/03/01 02:44:12;;;;;;;;;;;5.80;84.90;;;;;;5104392;27;19956;-57
2021/03/01 02:46:37;;;;;;;;;;;5.80;84.90;;;;;;5100817;27;20037;-58
2021/03/01 02:49:06;;;;;;;;;;;5.70;84.90;;;;;;5098764;28;20351;-59
2021/03/01 02:51:32;;;;;;;;;;;5.70;85.00;;;;;;5101244;28;19911;-58
2021/03/01 02:53:58;;;;;;;;;;;5.70;84.90;;;;;;5076981;27;19915;-59
2021/03/01 02:56:23;;;;;;;;;;;5.70;85.00;;;;;;5108121;28;19907;-59
2021/03/01 02:58:49;;;;;;;;;;;5.70;85.00;;;;;;5113560;28;20028;-57
2021/03/01 03:01:15;;;;;;;;;;;5.70;85.00;;;;;;5092163;28;19920;-59
2021/03/01 03:03:40;;;;;;;;;;;5.60;85.10;;;;;;5076668;27;20333;-59
2021/03/01 03:06:09;;;;;;;;;;;5.60;85.10;;;;;;5093815;28;19912;-56
2021/03/01 03:08:34;;;;;;;;;;;5.70;85.10;;;;;;5092752;28;20347;-59
2021/03/01 03:11:00;;;;;;;;;;;5.70;85.10;;;;;;5093771;28;20014;-59
2021/03/01 03:13:25;;;;;;;;;;;5.70;85.10;;;;;;5094495;28;20386;-58
2021/03/01 03:15:51;;;;;;;;;;;5.60;85.10;;;;;;5094136;28;19964;-59
2021/03/01 03:18:17;;;;;;;;;;;5.60;85.00;;;;;;5093524;28;20414;-57
2021/03/01 03:20:42;;;;;;;;;;;5.60;84.90;;;;;;5093278;28;19949;-58
2021/03/01 03:23:08;;;;;;;;;;;5.60;85.00;;;;;;5111329;27;19923;-59
2021/03/01 03:25:33;;;;;;;;;;;5.60;85.00;;;;;;5112879;28;19915;-59
2021/03/01 03:27:59;;;;;;;;;;;5.60;85.00;;;;;;5111830;28;19908;-58
2021/03/01 03:30:24;;;;;;;;;;;5.60;85.10;;;;;;5112618;27;20428;-56
2021/03/01 03:32:50;;;;;;;;;;;5.50;85.10;;;;;;5092549;28;19915;-59
2021/03/01 03:35:16;;;;;;;;;;;5.50;85.30;;;;;;5091793;28;19915;-57
2021/03/01 03:37:42;;;;;;;;;;;5.50;85.30;;;;;;5094364;28;19935;-56
2021/03/01 03:40:07;;;;;;;;;;;5.50;85.30;;;;;;5093256;28;20375;-57
2021/03/01 03:42:33;;;;;;;;;;;5.50;85.20;;;;;;5076043;28;20172;-57
2021/03/01 03:44:58;;;;;;;;;;;5.50;85.40;;;;;;5092653;28;19908;-57
2021/03/01 03:47:24;;;;;;;;;;;5.50;85.40;;;;;;5091947;28;20016;-57
2021/03/01 03:49:49;;;;;;;;;;;5.40;85.40;;;;;;5092454;28;19908;-58
2021/03/01 03:52:15;;;;;;;;;;;5.50;85.30;;;;;;5093071;28;19908;-57
2021/03/01 03:54:40;;;;;;;;;;;5.40;85.30;;;;;;5112082;27;19915;-58
2021/03/01 03:57:07;;;;;;;;;;;5.50;85.40;;;;;;5092885;28;19919;-57
2021/03/01 03:59:33;;;;;;;;;;;5.40;85.20;;;;;;5092645;28;19907;-59
2021/03/01 04:01:58;;;;;;;;;;;5.40;85.20;;;;;;5110388;27;19911;-58
2021/03/01 04:04:24;;;;;;;;;;;5.40;85.30;;;;;;5093387;28;19962;-56
2021/03/01 04:06:50;;;;;;;;;;;5.40;85.20;;;;;;5111655;28;19907;-59
2021/03/01 04:09:16;;;;;;;;;;;5.40;85.20;;;;;;5111664;27;19908;-58
2021/03/01 04:11:42;;;;;;;;;;;5.40;85.20;;;;;;5092089;28;19919;-56
2021/03/01 04:14:08;;;;;;;;;;;5.30;85.20;;;;;;5090765;28;20270;-57
2021/03/01 04:16:33;;;;;;;;;;;5.40;85.40;;;;;;5093089;28;19998;-59
2021/03/01 04:19:01;;;;;;;;;;;5.30;85.40;;;;;;5092969;28;19918;-57
2021/03/01 04:21:26;;;;;;;;;;;5.30;85.30;;;;;;5122548;27;19911;-56
2021/03/01 04:23:52;;;;;;;;;;;5.30;85.40;;;;;;5115972;27;19980;-58
2021/03/01 04:26:17;;;;;;;;;;;5.30;85.40;;;;;;5127041;27;19950;-59
2021/03/01 04:28:43;;;;;;;;;;;5.30;85.30;;;;;;5097031;27;19908;-57
2021/03/01 04:31:08;;;;;;;;;;;5.30;86.00;;;;;;5117748;27;19908;-58
2021/03/01 04:33:34;;;;;;;;;;;5.30;85.40;;;;;;5107084;27;19915;-56
2021/03/01 04:36:00;;;;;;;;;;;5.30;85.30;;;;;;5098708;28;19912;-57
2021/03/01 04:38:25;;;;;;;;;;;5.30;85.50;;;;;;5103046;28;19935;-57
2021/03/01 04:40:51;;;;;;;;;;;5.30;85.40;;;;;;5107134;28;19915;-60
2021/03/01 04:43:17;;;;;;;;;;;5.20;85.30;;;;;;5111030;28;19915;-60
2021/03/01 04:45:42;;;;;;;;;;;5.20;85.40;;;;;;5092379;28;19919;-57
2021/03/01 04:48:08;;;;;;;;;;;5.20;85.40;;;;;;5090184;28;19915;-60
2021/03/01 04:50:34;;;;;;;;;;;5.20;85.40;;;;;;5091511;28;19912;-59
2021/03/01 04:52:59;;;;;;;;;;;5.20;85.40;;;;;;5089492;28;19907;-58
2021/03/01 04:55:25;;;;;;;;;;;5.20;85.30;;;;;;5112432;27;19908;-58
2021/03/01 04:57:51;;;;;;;;;;;5.20;85.30;;;;;;5113186;27;20386;-57
2021/03/01 05:00:17;;;;;;;;;;;5.20;85.40;;;;;;5090194;28;19919;-57
2021/03/01 05:02:42;;;;;;;;;;;5.20;85.40;;;;;;5090527;28;19919;-59
2021/03/01 05:05:08;;;;;;;;;;;5.20;85.40;;;;;;5104929;27;19926;-59
2021/03/01 05:07:34;;;;;;;;;;;5.10;85.40;;;;;;5111908;27;19943;-56
2021/03/01 05:09:59;;;;;;;;;;;5.10;85.50;;;;;;5110631;28;20294;-58
2021/03/01 05:12:25;;;;;;;;;;;5.10;85.50;;;;;;5112650;27;19919;-58
2021/03/01 05:14:51;;;;;;;;;;;5.10;85.50;;;;;;5113127;27;19915;-59
2021/03/01 05:17:16;;;;;;;;;;;5.10;85.40;;;;;;5112106;27;19915;-57
2021/03/01 05:19:41;;;;;;;;;;;5.10;85.40;;;;;;5108636;27;19908;-59
2021/03/01 05:22:07;;;;;;;;;;;5.10;85.40;;;;;;5111736;27;20367;-57
2021/03/01 05:24:32;;;;;;;;;;;5.10;85.40;;;;;;5111908;27;19947;-59
2021/03/01 05:26:58;;;;;;;;;;;5.10;85.50;;;;;;5110045;28;19911;-59
2021/03/01 05:29:24;;;;;;;;;;;5.00;85.50;;;;;;5109539;28;19911;-57
2021/03/01 05:31:49;;;;;;;;;;;5.00;85.50;;;;;;5092089;28;19951;-58
2021/03/01 05:34:15;;;;;;;;;;;5.00;85.50;;;;;;5108866;28;19911;-58
2021/03/01 05:36:40;;;;;;;;;;;5.00;85.50;;;;;;5111688;27;19919;-59
2021/03/01 05:39:06;;;;;;;;;;;5.00;85.50;;;;;;5111532;27;20416;-56
2021/03/01 05:41:32;;;;;;;;;;;5.00;85.60;;;;;;5108100;28;20468;-56
2021/03/01 05:43:57;;;;;;;;;;;5.00;85.60;;;;;;5110210;28;19955;-58
2021/03/01 05:46:22;;;;;;;;;;;5.00;85.60;;;;;;5109471;28;20367;-58
2021/03/01 05:48:48;;;;;;;;;;;5.00;85.60;;;;;;5091512;28;19911;-59
2021/03/01 05:51:13;;;;;;;;;;;5.00;85.60;;;;;;5110697;28;19912;-57
2021/03/01 05:53:39;;;;;;;;;;;4.90;85.50;;;;;;5091748;28;20409;-60
2021/03/01 05:56:05;;;;;;;;;;;4.90;85.60;;;;;;5092198;28;19908;-57
2021/03/01 05:58:30;;;;;;;;;;;4.90;85.60;;;;;;5109059;28;19915;-59
2021/03/01 06:01:05;;;;;;;;;;;4.80;85.70;;;;;;5091217;28;19954;-58
2021/03/01 06:03:31;;;;;;;;;;;4.80;85.70;;;;;;5110598;28;19915;-58
2021/03/01 06:05:57;;;;;;;;;;;4.90;85.80;;;;;;5113381;28;19911;-59
2021/03/01 06:08:23;;;;;;;;;;;4.90;85.70;;;;;;5094611;28;19954;-59
2021/03/01 06:10:49;;;;;;;;;;;4.90;85.70;;;;;;5095031;28;19998;-56
2021/03/01 06:13:17;;;;;;;;;;;4.80;85.80;;;;;;5114266;27;20018;-57
2021/03/01 06:15:43;;;;;;;;;;;5.00;85.80;;;;;;5114996;27;19966;-60
2021/03/01 06:18:09;;;;;;;;;;;4.80;86.50;;;;;;5114095;27;19988;-59
2021/03/01 06:20:34;;;;;;;;;;;4.80;85.80;;;;;;5097175;28;19923;-59
2021/03/01 06:23:00;;;;;;;;;;;4.80;85.80;;;;;;5094975;27;19911;-57
2021/03/01 06:25:26;;;;;;;;;;;4.80;85.90;;;;;;5078104;28;19911;-56
2021/03/01 06:27:55;;;;;;;;;;;4.80;86.00;;;;;;5110954;27;20284;-57
2021/03/01 06:30:21;;;;;;;;;;;4.70;85.90;;;;;;5115664;27;20283;-58
2021/03/01 06:33:05;;;;;;;;;;;4.70;86.00;;;;;;5096430;27;20320;-57
2021/03/01 06:35:32;;;;;;;;;;;4.70;85.90;;;;;;5115784;27;20010;-56
2021/03/01 06:38:11;;;;;;;;;;;4.70;85.90;;;;;;5114577;27;20317;-59
2021/03/01 06:40:36;;;;;;;;;;;4.70;85.90;;;;;;5094158;28;19940;-57
2021/03/01 06:43:08;;;;;;;;;;;4.70;85.90;;;;;;5094806;28;19915;-57
2021/03/01 06:45:34;;;;;;;;;;;4.70;85.90;;;;;;5111532;28;19908;-59
2021/03/01 06:47:59;;;;;;;;;;;4.70;85.80;;;;;;5109187;28;19919;-55
2021/03/01 06:50:32;;;;;;;;;;;4.70;85.70;;;;;;5105132;28;19912;-59
2021/03/01 06:52:59;;;;;;;;;;;4.70;85.70;;;;;;5091825;28;20283;-57
2021/03/01 06:55:24;;;;;;;;;;;4.70;85.80;;;;;;5115054;27;19943;-59
2021/03/01 06:57:50;;;;;;;;;;;4.70;85.80;;;;;;5095557;28;19974;-59
2021/03/01 07:00:16;;;;;;;;;;;4.70;85.80;;;;;;5092286;28;19911;-56
2021/03/01 07:02:41;;;;;;;;;;;4.70;85.80;;;;;;5092211;28;19919;-59
2021/03/01 07:05:07;;;;;;;;;;;4.70;85.90;;;;;;5094980;27;20274;-58
2021/03/01 07:07:36;;;;;;;;;;;4.70;85.80;;;;;;5099398;28;19915;-56
2021/03/01 07:10:02;;;;;;;;;;;4.70;85.80;;;;;;5116134;27;20378;-59
2021/03/01 07:12:44;;;;;;;;;;;4.70;85.70;;;;;;5115586;27;19947;-56
2021/03/01 07:15:11;;;;;;;;;;;4.70;85.70;;;;;;5112411;27;19998;-59
2021/03/01 07:17:37;;;;;;;;;;;4.70;85.80;;;;;;5085640;28;19918;-56
2021/03/01 07:20:03;;;;;;;;;;;4.70;85.70;;;;;;5110552;27;20275;-57
2021/03/01 07:22:28;;;;;;;;;;;4.70;85.70;;;;;;5072935;28;19916;-58
2021/03/01 07:24:54;;;;;;;;;;;4.70;85.70;;;;;;5089784;28;19920;-59
2021/03/01 07:27:19;;;;;;;;;;;4.70;85.50;;;;;;5101437;28;19915;-59
2021/03/01 07:29:44;;;;;;;;;;;4.70;85.70;;;;;;5082275;28;19937;-56
2021/03/01 07:32:13;;;;;;;;;;;4.70;85.80;;;;;;5110240;28;20248;-59
2021/03/01 07:34:38;;;;;;;;;;;4.70;85.80;;;;;;5091553;28;20390;-57
2021/03/01 07:37:04;;;;;;;;;;;4.70;85.90;;;;;;5094688;28;19920;-60
2021/03/01 07:39:29;;;;;;;;;;;4.70;85.90;;;;;;5094827;27;20501;-57
2021/03/01 07:41:55;;;;;;;;;;;4.70;85.90;;;;;;5098131;28;19927;-59
2021/03/01 07:44:24;;;;;;;;;;;4.70;85.80;;;;;;5082230;28;19975;-58
2021/03/01 07:46:49;;;;;;;;;;;4.70;85.90;;;;;;5091602;28;19919;-58
2021/03/01 07:49:34;;;;;;;;;;;4.70;85.90;;;;;;5092483;28;19912;-57
2021/03/01 07:51:59;;;;;;;;;;;4.60;85.90;;;;;;5110636;28;19918;-60
2021/03/01 07:54:25;;;;;;;;;;;4.70;85.90;;;;;;5109795;28;19998;-56
2021/03/01 07:56:51;;;;;;;;;;;4.70;85.90;;;;;;5090528;28;19908;-56
2021/03/01 07:59:20;;;;;;;;;;;4.60;85.90;;;;;;5108079;27;19923;-58
2021/03/01 08:01:45;;;;;;;;;;;4.70;85.90;;;;;;5108114;28;19915;-59
2021/03/01 08:04:29;;;;;;;;;;;4.70;85.90;;;;;;5106356;28;19915;-59
2021/03/01 08:06:58;;;;;;;;;;;4.70;85.90;;;;;;5112607;27;19957;-57
2021/03/01 08:09:42;;;;;;;;;;;4.70;86.00;;;;;;5113874;27;19912;-56
2021/03/01 08:12:08;;;;;;;;;;;4.70;86.00;;;;;;5086212;28;19920;-59
2021/03/01 08:14:52;;;;;;;;;;;4.70;86.10;;;;;;5090429;27;20011;-56
2021/03/01 08:17:29;;;;;;;;;;;4.70;86.10;;;;;;5113640;27;19973;-58
2021/03/01 08:19:55;;;;;;;;;;;4.70;86.10;;;;;;5111163;27;20291;-56
2021/03/01 08:22:21;;;;;;;;;;;4.70;86.20;;;;;;5073496;28;19927;-59
2021/03/01 08:24:46;;;;;;;;;;;4.70;86.30;;;;;;5112099;27;20010;-59
2021/03/01 08:27:38;;;;;;;;;;;4.70;86.30;;;;;;5108887;28;19946;-56
2021/03/01 08:30:19;;;;;;;;;;;4.70;86.30;;;;;;5106138;28;19927;-56
2021/03/01 08:32:44;;;;;;;;;;;4.80;86.30;;;;;;5108026;28;19912;-59
2021/03/01 08:35:22;;;;;;;;;;;4.80;86.30;;;;;;5107064;28;19912;-58
2021/03/01 08:37:47;;;;;;;;;;;4.80;86.30;;;;;;5108399;28;19920;-57
2021/03/01 08:40:19;;;;;;;;;;;4.80;86.30;;;;;;5108028;28;19916;-58
2021/03/01 08:42:45;;;;;;;;;;;4.80;86.30;;;;;;5088236;28;19973;-57
2021/03/01 08:45:11;;;;;;;;;;;4.80;86.30;;;;;;5106434;27;20359;-57
2021/03/01 08:47:47;;;;;;;;;;;4.80;86.30;;;;;;5109067;28;19912;-59
2021/03/01 08:50:12;;;;;;;;;;;4.80;86.40;;;;;;5109692;27;20287;-59
2021/03/01 08:52:38;;;;;;;;;;;4.90;86.40;;;;;;5100917;28;19915;-58
2021/03/01 08:55:06;;;;;;;;;;;4.80;86.40;;;;;;5108984;28;20346;-56
2021/03/01 08:57:32;;;;;;;;;;;4.80;86.30;;;;;;5108986;28;20024;-59
2021/03/01 09:00:07;;;;;;;;;;;4.90;86.40;;;;;;5090416;28;19964;-60
2021/03/01 09:02:32;;;;;;;;;;;4.90;86.40;;;;;;5083126;28;19927;-59
2021/03/01 09:05:07;;;;;;;;;;;4.90;86.30;;;;;;5087711;28;19921;-59
2021/03/01 09:07:42;;;;;;;;;;;4.90;86.40;;;;;;5107094;28;19915;-59
2021/03/01 09:10:08;;;;;;;;;;;4.90;86.30;;;;;;5099003;28;19927;-56
2021/03/01 09:12:33;;;;;;;;;;;5.00;86.40;;;;;;5090096;28;19912;-57
2021/03/01 09:14:59;;;;;;;;;;;4.90;86.40;;;;;;5092675;28;20309;-60
2021/03/01 09:17:24;;;;;;;;;;;4.90;86.40;;;;;;5088378;28;19923;-56
2021/03/01 09:19:50;;;;;;;;;;;4.90;86.40;;;;;;5109128;28;19972;-59
2021/03/01 09:22:15;;;;;;;;;;;5.00;86.50;;;;;;5107703;28;20010;-56
2021/03/01 09:24:41;;;;;;;;;;;5.00;86.60;;;;;;5086349;28;20286;-57
2021/03/01 09:27:06;;;;;;;;;;;5.00;86.50;;;;;;5110851;27;19957;-58
2021/03/01 09:29:32;;;;;;;;;;;5.00;86.50;;;;;;5105266;28;19924;-58
2021/03/01 09:31:58;;;;;;;;;;;5.00;86.50;;;;;;5088931;28;19977;-57
2021/03/01 09:34:26;;;;;;;;;;;5.00;86.50;;;;;;5114496;28;20354;-59
2021/03/01 09:36:52;;;;;;;;;;;5.00;86.60;;;;;;5106999;28;19972;-57
2021/03/01 09:39:17;;;;;;;;;;;5.00;86.70;;;;;;5093294;28;19915;-57
2021/03/01 09:41:43;;;;;;;;;;;5.00;86.70;;;;;;5108021;28;19931;-59
2021/03/01 09:44:09;;;;;;;;;;;5.10;86.80;;;;;;5084780;28;20388;-56
2021/03/01 09:46:35;;;;;;;;;;;5.10;86.70;;;;;;5115975;28;19912;-58
2021/03/01 09:49:05;;;;;;;;;;;5.10;86.60;;;;;;5085142;28;19912;-60
2021/03/01 09:51:30;;;;;;;;;;;5.10;86.60;;;;;;5090406;28;20290;-57
2021/03/01 09:53:59;;;;;;;;;;;5.10;86.60;;;;;;5096541;28;19912;-60
2021/03/01 09:56:44;;;;;;;;;;;5.10;86.60;;;;;;5088201;28;19962;-57
2021/03/01 09:59:09;;;;;;;;;;;5.10;86.70;;;;;;5116589;28;19912;-59
2021/03/01 10:01:35;;;;;;;;;;;5.10;86.90;;;;;;5086339;28;20268;-58
2021/03/01 10:04:00;;;;;;;;;;;5.20;86.90;;;;;;5085409;28;19922;-59
2021/03/01 10:06:32;;;;;;;;;;;5.20;86.90;;;;;;5104215;28;20771;-58
2021/03/01 10:09:03;;;;;;;;;;;5.20;86.90;;;;;;5087731;28;19981;-59
2021/03/01 10:11:29;;;;;;;;;;;5.20;87.00;;;;;;5099358;28;19912;-57
2021/03/01 10:14:01;;;;;;;;;;;5.30;87.10;;;;;;5085716;28;19981;-57
2021/03/01 10:16:27;;;;;;;;;;;5.20;87.00;;;;;;5097807;28;19907;-59
2021/03/01 10:18:53;;;;;;;;;;;5.30;87.00;;;;;;5087314;28;20302;-58
2021/03/01 10:21:21;;;;;;;;;;;5.30;87.00;;;;;;5107035;28;19924;-58
2021/03/01 10:23:47;;;;;;;;;;;5.30;87.10;;;;;;5087635;28;19955;-56
2021/03/01 10:26:21;;;;;;;;;;;5.30;87.10;;;;;;5107004;28;19964;-57
2021/03/01 10:29:02;;;;;;;;;;;5.30;87.10;;;;;;5104488;28;19969;-56
2021/03/01 10:31:34;;;;;;;;;;;5.30;87.20;;;;;;5108506;28;19916;-59
2021/03/01 10:34:00;;;;;;;;;;;5.40;87.10;;;;;;5064160;28;19916;-57
2021/03/01 10:36:27;;;;;;;;;;;5.40;87.10;;;;;;5104476;28;19920;-57
2021/03/01 10:38:59;;;;;;;;;;;5.40;87.00;;;;;;5091771;28;19951;-57
2021/03/01 10:41:26;;;;;;;;;;;5.40;86.90;;;;;;5104803;28;19912;-59
2021/03/01 10:43:52;;;;;;;;;;;5.40;86.80;;;;;;5087084;28;19961;-56
2021/03/01 10:46:27;;;;;;;;;;;5.50;86.80;;;;;;5099334;28;19912;-59
2021/03/01 10:48:53;;;;;;;;;;;5.50;86.80;;;;;;5091204;28;20418;-57
2021/03/01 10:51:18;;;;;;;;;;;5.50;86.70;;;;;;5110649;27;19916;-57
2021/03/01 10:53:44;;;;;;;;;;;5.50;86.70;;;;;;5115225;27;19914;-57
2021/03/01 10:56:09;;;;;;;;;;;5.60;86.70;;;;;;5112991;27;19916;-56
2021/03/01 10:58:35;;;;;;;;;;;5.60;86.80;;;;;;5091781;28;20371;-56
2021/03/01 11:01:01;;;;;;;;;;;5.60;86.70;;;;;;5090092;27;19958;-59
2021/03/01 11:03:26;;;;;;;;;;;5.60;86.60;;;;;;5105947;27;19967;-57
2021/03/01 11:05:52;;;;;;;;;;;5.60;86.70;;;;;;5106457;27;20359;-57
2021/03/01 11:08:17;;;;;;;;;;;5.60;86.70;;;;;;5091578;28;19967;-58
2021/03/01 11:10:43;;;;;;;;;;;5.70;86.60;;;;;;5091965;28;19990;-59
2021/03/01 11:13:08;;;;;;;;;;;5.70;86.60;;;;;;5091520;28;19912;-57
2021/03/01 11:15:34;;;;;;;;;;;5.70;86.50;;;;;;5108596;27;19923;-59
2021/03/01 11:17:59;;;;;;;;;;;5.70;86.50;;;;;;5091123;28;19919;-59
2021/03/01 11:20:24;;;;;;;;;;;5.70;86.50;;;;;;5109630;27;20289;-56
2021/03/01 11:22:50;;;;;;;;;;;5.70;86.40;;;;;;5111517;27;19922;-57
2021/03/01 11:25:16;;;;;;;;;;;5.90;86.40;;;;;;5094153;27;19911;-59
2021/03/01 11:27:42;;;;;;;;;;;5.80;86.30;;;;;;5111952;27;19998;-58
2021/03/01 11:30:07;;;;;;;;;;;5.80;86.30;;;;;;5100487;27;19919;-58
2021/03/01 11:32:33;;;;;;;;;;;5.90;86.30;;;;;;5109231;27;20002;-59
2021/03/01 11:34:58;;;;;;;;;;;5.90;86.20;;;;;;5108465;27;19922;-58
2021/03/01 11:37:24;;;;;;;;;;;5.90;86.20;;;;;;5108494;27;19926;-58
2021/03/01 11:39:49;;;;;;;;;;;5.90;86.10;;;;;;5106043;27;20435;-58
2021/03/01 11:42:15;;;;;;;;;;;6.00;86.10;;;;;;5091174;28;19916;-59
2021/03/01 11:44:40;;;;;;;;;;;6.00;86.10;;;;;;5108760;28;19916;-58
2021/03/01 11:47:05;;;;;;;;;;;6.00;86.00;;;;;;5107900;28;19965;-59
2021/03/01 11:49:31;;;;;;;;;;;6.00;85.90;;;;;;5101821;28;19916;-56
2021/03/01 11:51:56;;;;;;;;;;;6.00;85.90;;;;;;5105121;28;20289;-59
2021/03/01 11:54:22;;;;;;;;;;;6.10;86.00;;;;;;5103927;27;19912;-56
2021/03/01 11:56:47;;;;;;;;;;;6.10;86.00;;;;;;5107243;28;20434;-60
2021/03/01 11:59:13;;;;;;;;;;;6.10;85.90;;;;;;5109373;27;19918;-58
2021/03/01 12:01:40;;;;;;;;;;;6.10;85.80;;;;;;5108174;28;19916;-59
2021/03/01 12:04:05;;;;;;;;;;;6.20;85.80;;;;;;5109156;27;20287;-56
2021/03/01 12:06:31;;;;;;;;;;;6.20;85.70;;;;;;5090940;28;20150;-58
2021/03/01 12:08:56;;;;;;;;;;;6.20;85.60;;;;;;5106398;27;19927;-59
2021/03/01 12:11:22;;;;;;;;;;;6.20;85.60;;;;;;5106512;28;19908;-56
2021/03/01 12:13:47;;;;;;;;;;;6.30;85.70;;;;;;5110769;28;20342;-57
2021/03/01 12:16:13;;;;;;;;;;;6.40;85.60;;;;;;5106691;28;19923;-58
2021/03/01 12:18:38;;;;;;;;;;;6.40;85.50;;;;;;5106552;28;19920;-56
2021/03/01 12:21:03;;;;;;;;;;;6.40;85.50;;;;;;5110612;28;19930;-58
2021/03/01 12:23:29;;;;;;;;;;;6.40;85.50;;;;;;5110652;28;19923;-58
2021/03/01 12:25:54;;;;;;;;;;;6.50;85.50;;;;;;5106345;28;19908;-56
2021/03/01 12:28:20;;;;;;;;;;;6.50;85.70;;;;;;5087143;28;19912;-58
2021/03/01 12:30:45;;;;;;;;;;;6.50;85.50;;;;;;5107997;28;19915;-58
2021/03/01 12:33:11;;;;;;;;;;;6.50;85.40;;;;;;5104080;28;19958;-58
2021/03/01 12:35:36;;;;;;;;;;;6.60;85.60;;;;;;5108929;28;19908;-60
2021/03/01 12:38:02;;;;;;;;;;;6.60;85.60;;;;;;5091309;28;19944;-57
2021/03/01 12:40:29;;;;;;;;;;;6.60;85.50;;;;;;5108860;28;19923;-59
2021/03/01 12:42:54;;;;;;;;;;;6.70;85.50;;;;;;5086324;28;20042;-58
2021/03/01 12:45:20;;;;;;;;;;;6.70;86.10;;;;;;5105108;28;20500;-59
2021/03/01 12:47:45;;;;;;;;;;;6.70;85.20;;;;;;5109294;27;19938;-58
2021/03/01 12:50:11;;;;;;;;;;;6.80;85.40;;;;;;5115808;27;19912;-59
2021/03/01 12:52:36;;;;;;;;;;;6.80;85.50;;;;;;5120106;27;20231;-56
2021/03/01 12:55:02;;;;;;;;;;;6.80;85.30;;;;;;5108993;27;20375;-56
2021/03/01 12:57:27;;;;;;;;;;;6.90;85.30;;;;;;5101155;28;20174;-60
2021/03/01 12:59:54;;;;;;;;;;;6.90;85.20;;;;;;5108098;28;19912;-57
2021/03/01 13:02:19;;;;;;;;;;;6.90;85.10;;;;;;5108692;28;19923;-58
2021/03/01 13:04:45;;;;;;;;;;;7.00;85.10;;;;;;5107792;28;20329;-60
2021/03/01 13:07:11;;;;;;;;;;;7.00;85.00;;;;;;5098306;28;19985;-59
2021/03/01 13:09:36;;;;;;;;;;;7.00;85.00;;;;;;5105771;27;19919;-59
2021/03/01 13:12:02;;;;;;;;;;;7.10;85.00;;;;;;5102716;28;19951;-59
2021/03/01 13:14:27;;;;;;;;;;;7.10;85.80;;;;;;5110155;27;19912;-58
2021/03/01 13:16:53;;;;;;;;;;;7.20;85.50;;;;;;5104225;27;19919;-57
2021/03/01 13:19:18;;;;;;;;;;;7.20;85.90;;;;;;5113022;27;19920;-59
2021/03/01 13:21:44;;;;;;;;;;;7.30;86.00;;;;;;5086767;28;20427;-58
2021/03/01 13:24:10;;;;;;;;;;;7.30;85.80;;;;;;5105920;28;19912;-57
2021/03/01 13:26:35;;;;;;;;;;;7.40;85.80;;;;;;5086925;28;20480;-58
2021/03/01 13:29:00;;;;;;;;;;;7.40;85.60;;;;;;5108998;28;19968;-57
2021/03/01 13:31:26;;;;;;;;;;;7.50;85.50;;;;;;5103194;28;19915;-58
2021/03/01 13:33:52;;;;;;;;;;;7.50;85.50;;;;;;5107284;28;19912;-57
2021/03/01 13:36:17;;;;;;;;;;;7.60;85.50;;;;;;5103500;28;19920;-58
2021/03/01 13:38:43;;;;;;;;;;;7.60;85.40;;;;;;5087040;28;19947;-57
2021/03/01 13:41:10;;;;;;;;;;;7.70;85.20;;;;;;5102516;28;19924;-57
2021/03/01 13:43:35;;;;;;;;;;;7.80;85.00;;;;;;5106424;28;19961;-57
2021/03/01 13:46:01;;;;;;;;;;;7.70;84.80;;;;;;5104223;28;19963;-60
2021/03/01 13:48:26;;;;;;;;;;;7.80;84.70;;;;;;5102642;28;19923;-57
2021/03/01 13:50:51;;;;;;;;;;;7.90;84.40;;;;;;5105796;28;19916;-58
2021/03/01 13:53:17;;;;;;;;;;;7.90;84.30;;;;;;5089222;28;20469;-58
2021/03/01 13:55:42;;;;;;;;;;;7.90;83.90;;;;;;5086834;28;19919;-57
2021/03/01 13:58:08;;;;;;;;;;;7.90;83.80;;;;;;5102395;28;20424;-58
2021/03/01 14:00:34;;;;;;;;;;;8.00;83.70;;;;;;5099474;28;19920;-57
2021/03/01 14:02:59;;;;;;;;;;;8.00;83.60;;;;;;5087965;28;20022;-57
2021/03/01 14:05:25;;;;;;;;;;;8.10;83.60;;;;;;5106377;28;20014;-60
2021/03/01 14:07:50;;;;;;;;;;;8.10;83.50;;;;;;5106721;28;20521;-58
2021/03/01 14:10:16;;;;;;;;;;;8.10;83.40;;;;;;5108853;28;19965;-59
2021/03/01 14:12:41;;;;;;;;;;;8.20;83.40;;;;;;5105254;28;19965;-57
2021/03/01 14:15:07;;;;;;;;;;;8.20;83.20;;;;;;5107559;28;20554;-57
2021/03/01 14:17:33;;;;;;;;;;;8.20;83.10;;;;;;5085240;28;19920;-57
2021/03/01 14:19:58;;;;;;;;;;;8.30;83.10;;;;;;5086734;28;19935;-59
2021/03/01 14:22:24;;;;;;;;;;;8.30;83.00;;;;;;5085498;28;20315;-56
2021/03/01 14:24:50;;;;;;;;;;;8.30;83.00;;;;;;5102970;28;19920;-56
2021/03/01 14:27:15;;;;;;;;;;;8.40;82.90;;;;;;5101620;28;20566;-58